Time;durP1;ratioP1;P1;durP2;ratioP2;P2;SDS_P1;SDS_P2;PMS_P1;PMS_P2;Temp;Humidity;BMP_temperature;BMP_pressure;BME280_temperature;BME280_humidity;BME280_pressure;Samples;Min_cycle;Max_cycle;Signal;HPM_P1;HPM_P2
2021/10/16 00:00:30;;;;;;;0.40;0.30;;;6.90;99.90;;;;;;5092143;28;20739;-71
2021/10/16 00:02:56;;;;;;;0.40;0.30;;;6.80;99.90;;;;;;5092317;28;20412;-71
2021/10/16 00:05:21;;;;;;;0.40;0.30;;;6.70;99.90;;;;;;5091038;28;20382;-72
2021/10/16 00:07:47;;;;;;;1.00;0.80;;;6.60;99.90;;;;;;5092157;28;20388;-73
2021/10/16 00:10:13;;;;;;;0.40;0.40;;;6.70;99.90;;;;;;5091956;28;20523;-72
2021/10/16 00:12:38;;;;;;;0.40;0.30;;;6.70;99.90;;;;;;5108689;28;20485;-73
2021/10/16 00:15:05;;;;;;;0.50;0.50;;;6.60;99.90;;;;;;5097956;28;20490;-72
2021/10/16 00:17:31;;;;;;;0.40;0.20;;;6.70;99.90;;;;;;5101326;28;20553;-72
2021/10/16 00:19:56;;;;;;;0.40;0.20;;;6.60;99.90;;;;;;5104423;28;20379;-72
2021/10/16 00:22:22;;;;;;;0.60;0.60;;;6.70;99.90;;;;;;5094855;28;20878;-73
2021/10/16 00:24:48;;;;;;;2.30;0.70;;;6.70;99.90;;;;;;5107237;28;20487;-72
2021/10/16 00:27:15;;;;;;;0.40;0.20;;;6.70;99.90;;;;;;5099730;28;20395;-72
2021/10/16 00:29:41;;;;;;;0.40;0.22;;;6.70;99.90;;;;;;5099458;28;20375;-73
2021/10/16 00:32:06;;;;;;;0.40;0.20;;;6.60;99.90;;;;;;5106305;28;20406;-71
2021/10/16 00:34:32;;;;;;;0.40;0.28;;;6.50;99.90;;;;;;5095182;28;20389;-72
2021/10/16 00:36:57;;;;;;;0.40;0.20;;;6.50;99.90;;;;;;5105987;28;20409;-72
2021/10/16 00:39:23;;;;;;;0.40;0.30;;;6.50;99.90;;;;;;5101150;28;20400;-72
2021/10/16 00:41:49;;;;;;;0.40;0.20;;;6.50;99.90;;;;;;5098802;28;20457;-72
2021/10/16 00:44:23;;;;;;;0.40;0.20;;;6.50;99.90;;;;;;5107719;28;20853;-72
2021/10/16 00:46:51;;;;;;;0.40;0.20;;;6.50;99.90;;;;;;5092252;28;20449;-72
2021/10/16 00:49:16;;;;;;;0.40;0.20;;;6.50;99.90;;;;;;5103516;28;20371;-72
2021/10/16 00:51:42;;;;;;;0.40;0.20;;;6.50;99.90;;;;;;5101682;28;20449;-72
2021/10/16 00:54:09;;;;;;;0.40;0.30;;;6.50;99.90;;;;;;5096349;28;20457;-72
2021/10/16 00:56:40;;;;;;;0.40;0.20;;;6.40;99.90;;;;;;5107683;28;20404;-72
2021/10/16 00:59:06;;;;;;;0.40;0.20;;;6.40;99.90;;;;;;5097342;28;20376;-72
2021/10/16 01:01:33;;;;;;;0.40;0.20;;;6.40;99.90;;;;;;5101023;27;20465;-72
2021/10/16 01:03:59;;;;;;;0.40;0.20;;;6.30;99.90;;;;;;5104180;28;20380;-72
2021/10/16 01:06:25;;;;;;;0.40;0.20;;;6.10;99.90;;;;;;5093625;28;20544;-72
2021/10/16 01:08:52;;;;;;;0.40;0.30;;;6.10;99.90;;;;;;5105913;28;20393;-73
2021/10/16 01:11:21;;;;;;;0.40;0.30;;;6.00;99.90;;;;;;5099020;28;20377;-72
2021/10/16 01:13:47;;;;;;;0.40;0.20;;;6.10;99.90;;;;;;5096587;28;20386;-72
2021/10/16 01:16:13;;;;;;;0.40;0.20;;;6.10;99.90;;;;;;5106479;28;20401;-72
2021/10/16 01:18:40;;;;;;;0.40;0.30;;;6.00;99.90;;;;;;5093963;28;20436;-73
2021/10/16 01:21:08;;;;;;;0.40;0.30;;;6.00;99.90;;;;;;5103965;28;20390;-72
2021/10/16 01:23:35;;;;;;;0.40;0.20;;;5.90;99.90;;;;;;5094720;28;20435;-72
2021/10/16 01:26:02;;;;;;;0.40;0.20;;;6.00;99.90;;;;;;5103936;28;21167;-72
2021/10/16 01:28:29;;;;;;;0.90;0.90;;;6.00;99.90;;;;;;5093991;28;20383;-72
2021/10/16 01:30:56;;;;;;;0.40;0.20;;;6.00;99.90;;;;;;5105026;28;20463;-72
2021/10/16 01:33:26;;;;;;;0.40;0.20;;;6.00;99.90;;;;;;5099401;28;20404;-71
2021/10/16 01:36:03;;;;;;;0.40;0.30;;;5.90;99.90;;;;;;5096827;28;20370;-73
2021/10/16 01:38:29;;;;;;;0.40;0.30;;;6.00;99.90;;;;;;5106818;28;20500;-73
2021/10/16 01:40:56;;;;;;;0.40;0.20;;;6.00;99.90;;;;;;5094570;28;20736;-73
2021/10/16 01:43:22;;;;;;;0.40;0.22;;;5.90;99.90;;;;;;5101546;28;20500;-73
2021/10/16 01:45:51;;;;;;;0.40;0.30;;;5.90;99.90;;;;;;5099726;28;21060;-73
2021/10/16 01:48:23;;;;;;;0.40;0.20;;;6.00;99.90;;;;;;5110246;28;20391;-73
2021/10/16 01:50:50;;;;;;;0.40;0.30;;;6.00;99.90;;;;;;5109255;28;20403;-73
2021/10/16 01:53:16;;;;;;;0.60;0.60;;;5.90;99.90;;;;;;5110340;28;20400;-73
2021/10/16 01:55:42;;;;;;;0.40;0.20;;;5.80;99.90;;;;;;5108931;28;20402;-74
2021/10/16 01:58:10;;;;;;;0.40;0.20;;;5.90;99.90;;;;;;5110737;28;20412;-73
2021/10/16 02:00:36;;;;;;;0.60;0.50;;;5.80;99.90;;;;;;5110610;28;20736;-73
2021/10/16 02:03:09;;;;;;;0.40;0.20;;;5.80;99.90;;;;;;5109637;28;21052;-73
2021/10/16 02:05:36;;;;;;;0.50;0.50;;;5.80;99.90;;;;;;5110903;28;20368;-73
2021/10/16 02:08:02;;;;;;;0.40;0.30;;;5.80;99.90;;;;;;5109862;28;21075;-73
2021/10/16 02:10:28;;;;;;;0.70;0.70;;;5.80;99.90;;;;;;5110632;28;20372;-73
2021/10/16 02:12:54;;;;;;;0.40;0.30;;;5.90;99.90;;;;;;5109763;28;20732;-73
2021/10/16 02:15:21;;;;;;;0.40;0.40;;;5.80;99.90;;;;;;5110691;28;20377;-73
2021/10/16 02:17:46;;;;;;;0.40;0.20;;;5.70;99.90;;;;;;5109752;28;20404;-74
2021/10/16 02:20:12;;;;;;;0.40;0.20;;;5.70;99.90;;;;;;5110895;28;20399;-73
2021/10/16 02:22:38;;;;;;;1.10;0.50;;;5.70;99.90;;;;;;5110061;28;20477;-73
2021/10/16 02:25:04;;;;;;;0.40;0.30;;;5.70;99.90;;;;;;5109804;28;20381;-73
2021/10/16 02:27:29;;;;;;;0.40;0.30;;;5.50;99.90;;;;;;5110151;28;20883;-73
2021/10/16 02:29:55;;;;;;;0.50;0.50;;;5.40;99.90;;;;;;5109621;28;20376;-73
2021/10/16 02:32:21;;;;;;;0.40;0.20;;;5.40;99.90;;;;;;5110349;28;20383;-73
2021/10/16 02:34:47;;;;;;;0.40;0.30;;;5.50;99.90;;;;;;5108298;28;20403;-74
2021/10/16 02:37:13;;;;;;;0.40;0.32;;;5.40;99.90;;;;;;5109927;28;20425;-73
2021/10/16 02:39:38;;;;;;;0.40;0.30;;;5.40;99.90;;;;;;5109123;28;20892;-73
2021/10/16 02:42:04;;;;;;;0.40;0.20;;;5.40;99.90;;;;;;5109428;28;20361;-73
2021/10/16 02:44:30;;;;;;;0.40;0.20;;;5.40;99.90;;;;;;5110049;28;20380;-73
2021/10/16 02:46:56;;;;;;;0.40;0.30;;;5.40;99.90;;;;;;5089079;28;20730;-73
2021/10/16 02:49:22;;;;;;;0.40;0.30;;;5.40;99.90;;;;;;5089581;28;20704;-73
2021/10/16 02:51:48;;;;;;;0.40;0.20;;;5.40;99.90;;;;;;5088871;28;20413;-74
2021/10/16 02:54:14;;;;;;;0.40;0.20;;;5.30;99.90;;;;;;5091047;28;20389;-73
2021/10/16 02:56:40;;;;;;;0.40;0.20;;;5.30;99.90;;;;;;5093341;28;20410;-73
2021/10/16 02:59:06;;;;;;;0.40;0.30;;;5.40;99.90;;;;;;5092761;28;20465;-73
2021/10/16 03:01:31;;;;;;;0.40;0.30;;;5.40;99.90;;;;;;5093110;28;20370;-73
2021/10/16 03:03:57;;;;;;;0.40;0.22;;;5.50;99.90;;;;;;5092383;28;20407;-73
2021/10/16 03:06:22;;;;;;;0.40;0.30;;;5.60;99.90;;;;;;5092961;28;20382;-73
2021/10/16 03:08:48;;;;;;;0.40;0.25;;;5.70;99.90;;;;;;5092537;28;20445;-74
2021/10/16 03:11:14;;;;;;;0.50;0.50;;;5.70;99.90;;;;;;5091967;28;20802;-73
2021/10/16 03:13:39;;;;;;;0.40;0.20;;;5.70;99.90;;;;;;5092938;28;20408;-73
2021/10/16 03:16:05;;;;;;;0.40;0.20;;;5.70;99.90;;;;;;5090975;28;20389;-74
2021/10/16 03:18:31;;;;;;;0.40;0.20;;;5.70;99.90;;;;;;5093373;28;20378;-73
2021/10/16 03:20:57;;;;;;;0.40;0.20;;;5.70;99.90;;;;;;5092312;28;20608;-74
2021/10/16 03:23:22;;;;;;;0.40;0.20;;;5.60;99.90;;;;;;5093059;28;20839;-74
2021/10/16 03:25:48;;;;;;;0.40;0.20;;;5.60;99.90;;;;;;5092725;28;20847;-74
2021/10/16 03:28:13;;;;;;;0.50;0.50;;;5.60;99.90;;;;;;5093208;28;20378;-73
2021/10/16 03:30:39;;;;;;;0.40;0.40;;;5.70;99.90;;;;;;5092935;28;20870;-73
2021/10/16 03:33:06;;;;;;;0.40;0.20;;;5.60;99.90;;;;;;5092047;28;20374;-73
2021/10/16 03:35:32;;;;;;;0.40;0.20;;;5.50;99.90;;;;;;5092850;28;20382;-73
2021/10/16 03:37:58;;;;;;;0.40;0.20;;;5.50;99.90;;;;;;5090222;28;20421;-73
2021/10/16 03:40:23;;;;;;;0.40;0.20;;;5.40;99.90;;;;;;5091561;28;20451;-73
2021/10/16 03:42:49;;;;;;;0.40;0.20;;;5.50;99.90;;;;;;5091953;28;20478;-74
2021/10/16 03:45:15;;;;;;;0.40;0.20;;;5.60;99.90;;;;;;5092393;28;20413;-73
2021/10/16 03:47:41;;;;;;;0.40;0.20;;;5.50;99.90;;;;;;5091189;28;20438;-73
2021/10/16 03:50:07;;;;;;;0.40;0.30;;;5.40;99.90;;;;;;5091758;28;20378;-73
2021/10/16 03:52:33;;;;;;;0.40;0.40;;;5.40;99.90;;;;;;5092266;28;20417;-73
2021/10/16 03:54:59;;;;;;;0.45;0.35;;;5.30;99.90;;;;;;5091640;28;20378;-73
2021/10/16 03:57:24;;;;;;;0.40;0.20;;;5.30;99.90;;;;;;5092009;28;20420;-73
2021/10/16 03:59:50;;;;;;;0.40;0.20;;;5.20;99.90;;;;;;5091880;28;20865;-74
2021/10/16 04:02:18;;;;;;;0.40;0.40;;;5.30;99.90;;;;;;5092150;28;20918;-73
2021/10/16 04:04:44;;;;;;;2.67;0.65;;;5.30;99.90;;;;;;5092614;28;20374;-73
2021/10/16 04:07:10;;;;;;;0.40;0.20;;;5.20;99.90;;;;;;5090947;28;20463;-73
2021/10/16 04:09:35;;;;;;;0.40;0.20;;;5.10;99.90;;;;;;5092579;28;20830;-73
2021/10/16 04:12:01;;;;;;;0.40;0.20;;;5.00;99.90;;;;;;5091682;28;20374;-73
2021/10/16 04:14:27;;;;;;;0.40;0.30;;;4.90;99.90;;;;;;5091005;28;20410;-73
2021/10/16 04:16:53;;;;;;;0.40;0.20;;;4.90;99.90;;;;;;5091575;28;20406;-74
2021/10/16 04:19:18;;;;;;;0.40;0.30;;;4.80;99.90;;;;;;5092580;28;20787;-73
2021/10/16 04:21:44;;;;;;;0.70;0.60;;;4.80;99.90;;;;;;5092363;28;20473;-73
2021/10/16 04:24:09;;;;;;;0.40;0.30;;;4.90;99.90;;;;;;5091375;28;20381;-73
2021/10/16 04:26:35;;;;;;;0.40;0.20;;;5.00;99.90;;;;;;5091024;28;20391;-73
2021/10/16 04:29:01;;;;;;;0.40;0.20;;;4.90;99.90;;;;;;5090976;28;20427;-73
2021/10/16 04:31:26;;;;;;;0.40;0.30;;;4.90;99.90;;;;;;5092126;28;20838;-73
2021/10/16 04:33:52;;;;;;;0.40;0.30;;;5.00;99.90;;;;;;5090127;28;20469;-74
2021/10/16 04:36:18;;;;;;;0.40;0.20;;;5.00;99.90;;;;;;5091775;28;20443;-73
2021/10/16 04:38:48;;;;;;;0.40;0.30;;;4.90;99.90;;;;;;5091971;28;20854;-73
2021/10/16 04:41:15;;;;;;;0.40;0.20;;;5.00;99.90;;;;;;5090991;28;20457;-73
2021/10/16 04:43:41;;;;;;;0.40;0.20;;;5.10;99.90;;;;;;5091830;28;20378;-73
2021/10/16 04:46:11;;;;;;;0.40;0.30;;;5.00;99.90;;;;;;5091035;28;20707;-73
2021/10/16 04:48:43;;;;;;;0.40;0.20;;;5.10;99.90;;;;;;5091368;28;20394;-73
2021/10/16 04:51:13;;;;;;;0.40;0.20;;;5.20;99.90;;;;;;5090764;28;20885;-73
2021/10/16 04:53:39;;;;;;;2.20;0.50;;;5.10;99.90;;;;;;5091493;28;20465;-72
2021/10/16 04:56:05;;;;;;;0.50;0.50;;;5.00;99.90;;;;;;5089500;28;20473;-73
2021/10/16 04:58:31;;;;;;;0.40;0.20;;;4.90;99.90;;;;;;5091268;28;20885;-73
2021/10/16 05:00:56;;;;;;;0.40;0.20;;;4.90;99.90;;;;;;5090841;28;20429;-73
2021/10/16 05:03:22;;;;;;;0.40;0.20;;;4.90;99.90;;;;;;5090249;28;20472;-73
2021/10/16 05:05:48;;;;;;;0.40;0.20;;;4.70;99.90;;;;;;5090273;28;20393;-73
2021/10/16 05:08:13;;;;;;;0.80;0.50;;;4.80;99.90;;;;;;5089285;28;20413;-74
2021/10/16 05:10:39;;;;;;;0.40;0.30;;;4.70;99.90;;;;;;5090092;28;20401;-73
2021/10/16 05:13:05;;;;;;;0.40;0.20;;;4.80;99.90;;;;;;5089304;28;20466;-74
2021/10/16 05:15:31;;;;;;;0.40;0.20;;;4.70;99.90;;;;;;5091583;28;20378;-73
2021/10/16 05:17:56;;;;;;;0.40;0.30;;;4.50;99.90;;;;;;5090245;28;20405;-74
2021/10/16 05:20:22;;;;;;;0.52;0.52;;;4.60;99.90;;;;;;5091198;28;20850;-73
2021/10/16 05:22:48;;;;;;;0.40;0.20;;;4.70;99.90;;;;;;5089591;28;20426;-73
2021/10/16 05:25:15;;;;;;;0.40;0.20;;;4.70;99.90;;;;;;5090611;28;20378;-73
2021/10/16 05:27:41;;;;;;;0.40;0.20;;;4.70;99.90;;;;;;5091115;28;20394;-72
2021/10/16 05:30:08;;;;;;;0.40;0.20;;;4.80;99.90;;;;;;5090316;28;20386;-72
2021/10/16 05:32:34;;;;;;;0.40;0.30;;;4.90;99.90;;;;;;5090805;28;20862;-72
2021/10/16 05:35:00;;;;;;;0.40;0.20;;;5.00;99.90;;;;;;5088827;28;20443;-73
2021/10/16 05:37:26;;;;;;;0.40;0.20;;;5.00;99.90;;;;;;5090947;28;20406;-72
2021/10/16 05:39:51;;;;;;;0.40;0.20;;;5.10;99.90;;;;;;5090933;28;20439;-72
2021/10/16 05:42:17;;;;;;;1.40;1.30;;;5.10;99.90;;;;;;5090180;28;20536;-73
2021/10/16 05:44:43;;;;;;;0.40;0.37;;;5.10;99.90;;;;;;5090430;28;20382;-72
2021/10/16 05:47:08;;;;;;;0.40;0.20;;;5.10;99.90;;;;;;5090373;28;20386;-73
2021/10/16 05:49:34;;;;;;;0.40;0.20;;;4.90;99.90;;;;;;5089780;28;20394;-72
2021/10/16 05:52:00;;;;;;;0.40;0.20;;;4.90;99.90;;;;;;5089782;28;20409;-73
2021/10/16 05:54:26;;;;;;;0.40;0.20;;;4.80;99.90;;;;;;5090802;28;20420;-73
2021/10/16 05:56:51;;;;;;;0.40;0.20;;;4.70;99.90;;;;;;5090729;28;20406;-72
2021/10/16 05:59:17;;;;;;;1.00;0.40;;;4.70;99.90;;;;;;5090223;28;21018;-72
2021/10/16 06:01:43;;;;;;;0.40;0.30;;;4.70;99.90;;;;;;5090374;28;20389;-75
2021/10/16 06:04:08;;;;;;;0.40;0.20;;;4.80;99.90;;;;;;5089423;28;20461;-74
2021/10/16 06:06:34;;;;;;;0.40;0.20;;;4.80;99.90;;;;;;5090677;28;20512;-72
2021/10/16 06:08:59;;;;;;;0.40;0.20;;;4.80;99.90;;;;;;5088582;28;20378;-73
2021/10/16 06:11:25;;;;;;;0.40;0.20;;;4.90;99.90;;;;;;5090732;28;20734;-72
2021/10/16 06:13:51;;;;;;;0.80;0.80;;;4.60;99.90;;;;;;5089375;28;20418;-72
2021/10/16 06:16:16;;;;;;;0.40;0.20;;;4.70;99.90;;;;;;5089798;28;20406;-72
2021/10/16 06:18:43;;;;;;;0.40;0.20;;;4.80;99.90;;;;;;5090409;28;20374;-72
2021/10/16 06:21:10;;;;;;;0.40;0.20;;;4.80;99.90;;;;;;5089792;28;20436;-72
2021/10/16 06:23:36;;;;;;;0.40;0.20;;;4.80;99.90;;;;;;5090329;28;20834;-72
2021/10/16 06:26:02;;;;;;;0.40;0.30;;;4.90;99.90;;;;;;5088440;28;20469;-72
2021/10/16 06:28:28;;;;;;;0.40;0.20;;;4.90;99.90;;;;;;5090646;28;20386;-72
2021/10/16 06:30:54;;;;;;;0.40;0.20;;;4.90;99.90;;;;;;5094328;28;20380;-72
2021/10/16 06:33:19;;;;;;;0.40;0.20;;;4.90;99.90;;;;;;5093580;28;20366;-72
2021/10/16 06:35:46;;;;;;;0.40;0.20;;;4.90;99.90;;;;;;5094204;28;20377;-73
2021/10/16 06:38:11;;;;;;;0.40;0.20;;;4.90;99.90;;;;;;5093456;28;20451;-72
2021/10/16 06:40:37;;;;;;;0.40;0.30;;;5.00;99.90;;;;;;5093868;28;20866;-72
2021/10/16 06:43:03;;;;;;;0.40;0.20;;;4.90;99.90;;;;;;5093722;28;20378;-72
2021/10/16 06:45:29;;;;;;;0.40;0.20;;;4.90;99.90;;;;;;5092638;28;20746;-72
2021/10/16 06:47:55;;;;;;;0.40;0.20;;;5.10;99.90;;;;;;5092848;28;20386;-72
2021/10/16 06:50:20;;;;;;;0.40;0.30;;;5.10;99.90;;;;;;5093070;28;20972;-72
2021/10/16 06:52:46;;;;;;;0.50;0.50;;;5.10;99.90;;;;;;5094101;28;20954;-72
2021/10/16 06:55:12;;;;;;;0.40;0.20;;;5.20;99.90;;;;;;5093212;28;20381;-73
2021/10/16 06:57:38;;;;;;;0.50;0.40;;;5.30;99.90;;;;;;5092708;28;20455;-71
2021/10/16 07:00:06;;;;;;;0.40;0.20;;;5.30;99.90;;;;;;5091936;28;20952;-72
2021/10/16 07:02:32;;;;;;;0.40;0.20;;;5.40;99.90;;;;;;5093259;28;20451;-72
2021/10/16 07:04:58;;;;;;;0.40;0.20;;;5.40;99.90;;;;;;5093845;28;20465;-71
2021/10/16 07:07:24;;;;;;;0.40;0.20;;;5.40;99.90;;;;;;5093087;28;20458;-71
2021/10/16 07:09:50;;;;;;;0.40;0.30;;;5.60;99.90;;;;;;5093803;28;20398;-71
2021/10/16 07:12:15;;;;;;;0.43;0.23;;;5.60;99.90;;;;;;5092505;28;20382;-72
2021/10/16 07:14:41;;;;;;;0.40;0.30;;;5.50;99.90;;;;;;5093512;28;20469;-72
2021/10/16 07:17:07;;;;;;;0.40;0.20;;;5.70;99.90;;;;;;5092914;28;20406;-72
2021/10/16 07:19:33;;;;;;;0.40;0.20;;;5.80;99.90;;;;;;5093389;28;20810;-72
2021/10/16 07:21:59;;;;;;;0.40;0.20;;;5.90;99.90;;;;;;5093526;28;20480;-72
2021/10/16 07:24:25;;;;;;;0.50;0.50;;;6.00;99.90;;;;;;5093101;28;20381;-72
2021/10/16 07:26:51;;;;;;;0.40;0.30;;;6.10;99.90;;;;;;5092145;28;20390;-72
2021/10/16 07:29:16;;;;;;;0.40;0.25;;;6.10;99.90;;;;;;5092522;28;20378;-72
2021/10/16 07:31:42;;;;;;;0.40;0.30;;;6.20;99.90;;;;;;5093059;28;20726;-72
2021/10/16 07:34:07;;;;;;;0.40;0.20;;;6.30;99.90;;;;;;5092310;28;20919;-70
2021/10/16 07:36:38;;;;;;;0.40;0.20;;;6.40;99.90;;;;;;5093077;28;20462;-71
2021/10/16 07:39:05;;;;;;;0.40;0.20;;;6.50;99.90;;;;;;5092872;28;20775;-71
2021/10/16 07:41:32;;;;;;;0.40;0.40;;;6.60;99.90;;;;;;5093131;28;20453;-71
2021/10/16 07:43:57;;;;;;;0.45;0.40;;;6.60;99.90;;;;;;5093343;28;20382;-71
2021/10/16 07:46:23;;;;;;;0.40;0.20;;;6.70;99.90;;;;;;5092482;28;20439;-70
2021/10/16 07:48:49;;;;;;;0.40;0.30;;;6.90;99.90;;;;;;5092999;28;20413;-70
2021/10/16 07:51:15;;;;;;;0.40;0.20;;;6.90;99.90;;;;;;5092344;28;20393;-71
2021/10/16 07:53:40;;;;;;;0.40;0.20;;;6.90;99.90;;;;;;5093045;28;20377;-72
2021/10/16 07:56:06;;;;;;;0.40;0.20;;;7.00;99.90;;;;;;5092792;28;20387;-71
2021/10/16 07:58:32;;;;;;;0.40;0.22;;;7.10;99.90;;;;;;5093110;28;20378;-71
2021/10/16 08:00:58;;;;;;;0.88;0.88;;;7.30;99.90;;;;;;5092728;28;20366;-71
2021/10/16 08:03:23;;;;;;;0.50;0.50;;;7.50;99.90;;;;;;5092525;28;20511;-71
2021/10/16 08:05:49;;;;;;;2.30;1.00;;;7.60;99.90;;;;;;5092794;28;20469;-71
2021/10/16 08:08:15;;;;;;;0.40;0.20;;;7.70;99.90;;;;;;5092074;28;20468;-71
2021/10/16 08:10:40;;;;;;;0.40;0.20;;;7.80;99.90;;;;;;5092808;28;20378;-71
2021/10/16 08:13:06;;;;;;;0.40;0.30;;;7.90;99.90;;;;;;5092351;28;20846;-71
2021/10/16 08:15:34;;;;;;;0.40;0.40;;;8.00;99.90;;;;;;5092650;28;20366;-71
2021/10/16 08:18:00;;;;;;;0.40;0.40;;;8.20;99.90;;;;;;5092758;28;20410;-71
2021/10/16 08:20:26;;;;;;;0.40;0.30;;;8.50;99.90;;;;;;5091778;28;20390;-70
2021/10/16 08:22:52;;;;;;;0.40;0.20;;;8.70;99.90;;;;;;5093047;28;20435;-71
2021/10/16 08:25:17;;;;;;;0.40;0.20;;;8.80;99.90;;;;;;5092280;28;20419;-71
2021/10/16 08:27:46;;;;;;;0.40;0.20;;;8.80;99.90;;;;;;5092682;28;20814;-70
2021/10/16 08:30:12;;;;;;;0.40;0.40;;;9.00;99.90;;;;;;5091839;28;20739;-71
2021/10/16 08:32:39;;;;;;;0.60;0.60;;;9.00;99.90;;;;;;5092526;28;20397;-71
2021/10/16 08:35:06;;;;;;;0.40;0.40;;;9.00;99.90;;;;;;5091863;28;20432;-72
2021/10/16 08:37:31;;;;;;;0.40;0.20;;;9.00;99.90;;;;;;5092186;28;20413;-71
2021/10/16 08:39:57;;;;;;;0.50;0.50;;;8.90;99.90;;;;;;5092446;28;20371;-71
2021/10/16 08:42:23;;;;;;;0.40;0.20;;;9.00;99.90;;;;;;5091604;28;20378;-71
2021/10/16 08:44:48;;;;;;;0.60;0.50;;;9.10;99.90;;;;;;5092353;28;20382;-72
2021/10/16 08:47:18;;;;;;;0.40;0.40;;;9.10;99.90;;;;;;5091633;28;20822;-72
2021/10/16 08:49:45;;;;;;;0.40;0.30;;;9.20;99.90;;;;;;5092346;28;20386;-74
2021/10/16 08:52:11;;;;;;;0.40;0.20;;;9.30;99.90;;;;;;5102589;28;20486;-74
2021/10/16 08:54:39;;;;;;;0.40;0.20;;;9.30;99.90;;;;;;5111897;28;20982;-74
2021/10/16 08:57:05;;;;;;;0.40;0.20;;;9.20;99.90;;;;;;5102495;28;20416;-74
2021/10/16 08:59:31;;;;;;;2.80;1.50;;;9.40;99.90;;;;;;5096025;28;20385;-73
2021/10/16 09:02:08;;;;;;;0.40;0.20;;;9.20;99.90;;;;;;5102769;28;20405;-73
2021/10/16 09:04:35;;;;;;;0.40;0.23;;;9.30;99.90;;;;;;5104740;28;20392;-74
2021/10/16 09:07:17;;;;;;;0.40;0.30;;;9.40;99.90;;;;;;5092589;28;20577;-74
2021/10/16 09:09:43;;;;;;;0.40;0.30;;;9.40;99.90;;;;;;5082415;28;20903;-74
2021/10/16 09:12:11;;;;;;;0.40;0.40;;;9.50;99.90;;;;;;5088060;28;20386;-74
2021/10/16 09:14:45;;;;;;;0.40;0.30;;;9.40;99.90;;;;;;5085424;28;20386;-74
2021/10/16 09:17:13;;;;;;;0.40;0.20;;;9.40;99.90;;;;;;5089719;28;20417;-73
2021/10/16 09:19:39;;;;;;;0.40;0.30;;;9.30;99.90;;;;;;5090675;28;20865;-75
2021/10/16 09:22:07;;;;;;;0.40;0.40;;;9.50;99.90;;;;;;5090934;28;20476;-74
2021/10/16 09:24:35;;;;;;;0.60;0.50;;;9.60;99.90;;;;;;5090660;28;20386;-74
2021/10/16 09:27:09;;;;;;;0.40;0.20;;;9.80;99.90;;;;;;5091087;28;20462;-75
2021/10/16 09:29:43;;;;;;;0.40;0.20;;;9.80;99.90;;;;;;5090859;28;20428;-74
2021/10/16 09:32:18;;;;;;;0.40;0.20;;;9.80;99.90;;;;;;5090294;28;20382;-75
2021/10/16 09:34:48;;;;;;;0.40;0.20;;;9.90;99.90;;;;;;5091051;28;20866;-75
2021/10/16 09:37:21;;;;;;;0.40;0.20;;;10.00;99.90;;;;;;5090084;28;20420;-75
2021/10/16 09:39:50;;;;;;;0.40;0.30;;;10.00;99.90;;;;;;5090780;28;20951;-75
2021/10/16 09:42:36;;;;;;;0.40;0.20;;;10.10;99.90;;;;;;5089881;28;20378;-75
2021/10/16 09:45:07;;;;;;;0.40;0.40;;;10.20;99.90;;;;;;5090840;28;20378;-74
2021/10/16 09:47:33;;;;;;;0.40;0.30;;;10.20;99.90;;;;;;5086965;28;20378;-74
2021/10/16 09:50:03;;;;;;;0.40;0.20;;;10.20;99.90;;;;;;5090773;28;20377;-73
2021/10/16 09:52:40;;;;;;;0.40;0.20;;;10.30;99.90;;;;;;5089342;28;20474;-74
2021/10/16 09:55:15;;;;;;;0.40;0.20;;;10.40;99.90;;;;;;5090770;28;20388;-75
2021/10/16 09:57:45;;;;;;;0.40;0.30;;;10.40;99.90;;;;;;5090490;28;20977;-74
2021/10/16 10:00:13;;;;;;;0.40;0.30;;;10.50;99.90;;;;;;5088927;28;20393;-75
2021/10/16 10:02:39;;;;;;;0.40;0.20;;;10.50;99.90;;;;;;5090579;28;20963;-74
2021/10/16 10:05:07;;;;;;;0.40;0.30;;;10.50;99.90;;;;;;5093296;28;20413;-75
2021/10/16 10:07:35;;;;;;;0.40;0.30;;;10.60;99.90;;;;;;5093907;28;20378;-73
2021/10/16 10:10:03;;;;;;;0.40;0.30;;;10.60;99.90;;;;;;5093809;28;20397;-74
2021/10/16 10:12:28;;;;;;;0.40;0.30;;;10.70;99.90;;;;;;5094209;28;20386;-74
2021/10/16 10:14:56;;;;;;;0.40;0.20;;;10.90;99.90;;;;;;5094225;28;20389;-74
2021/10/16 10:17:30;;;;;;;0.40;0.30;;;11.00;99.90;;;;;;5093637;28;20409;-73
2021/10/16 10:20:04;;;;;;;0.68;0.68;;;11.20;99.90;;;;;;5095054;28;20370;-73
2021/10/16 10:22:34;;;;;;;0.40;0.30;;;11.30;99.90;;;;;;5094021;28;20393;-73
2021/10/16 10:25:00;;;;;;;0.40;0.40;;;11.20;99.90;;;;;;5093394;28;20405;-73
2021/10/16 10:27:26;;;;;;;0.40;0.20;;;11.50;99.90;;;;;;5093961;28;20462;-74
2021/10/16 10:29:54;;;;;;;0.40;0.20;;;11.60;99.90;;;;;;5094575;28;20421;-73
2021/10/16 10:32:22;;;;;;;0.40;0.20;;;11.50;99.90;;;;;;5094088;28;20415;-74
2021/10/16 10:34:59;;;;;;;0.40;0.20;;;11.70;99.90;;;;;;5094396;28;20401;-74
2021/10/16 10:37:40;;;;;;;0.40;0.40;;;11.70;99.90;;;;;;5092071;28;20417;-74
2021/10/16 10:40:31;;;;;;;0.40;0.30;;;11.90;99.90;;;;;;5094318;28;20389;-73
2021/10/16 10:42:57;;;;;;;0.40;0.30;;;12.10;99.90;;;;;;5094195;28;20390;-73
2021/10/16 10:45:31;;;;;;;0.40;0.40;;;12.00;99.90;;;;;;5091961;28;20386;-74
2021/10/16 10:48:02;;;;;;;1.30;1.30;;;12.20;99.90;;;;;;5094227;28;20499;-74
2021/10/16 10:50:46;;;;;;;0.40;0.30;;;12.10;99.90;;;;;;5093384;28;20381;-74
2021/10/16 10:53:22;;;;;;;0.40;0.30;;;12.40;99.90;;;;;;5093319;28;20414;-73
2021/10/16 10:55:59;;;;;;;0.50;0.50;;;12.70;99.90;;;;;;5093643;28;20386;-73
2021/10/16 10:58:50;;;;;;;0.40;0.40;;;12.90;99.90;;;;;;5093034;28;20466;-74
2021/10/16 11:01:41;;;;;;;0.40;0.30;;;13.00;99.90;;;;;;5093096;28;20427;-74
2021/10/16 11:04:07;;;;;;;0.40;0.30;;;13.00;99.90;;;;;;5093720;28;20378;-74
2021/10/16 11:06:33;;;;;;;0.80;0.60;;;14.10;99.90;;;;;;5091611;28;21072;-74
2021/10/16 11:09:15;;;;;;;0.40;0.20;;;14.30;99.90;;;;;;5093674;28;20418;-74
2021/10/16 11:11:49;;;;;;;0.40;0.30;;;15.10;99.90;;;;;;5093659;28;20389;-74
2021/10/16 11:14:18;;;;;;;0.40;0.20;;;15.40;99.10;;;;;;5091510;28;20385;-74
2021/10/16 11:16:54;;;;;;;0.40;0.20;;;15.80;98.20;;;;;;5091826;28;20451;-74
2021/10/16 11:19:20;;;;;;;0.40;0.30;;;16.00;97.80;;;;;;5092967;28;20469;-74
2021/10/16 11:21:56;;;;;;;0.40;0.30;;;15.80;96.60;;;;;;5093402;28;20588;-75
2021/10/16 11:24:23;;;;;;;0.40;0.30;;;16.70;98.10;;;;;;5092412;28;20742;-75
2021/10/16 11:26:57;;;;;;;0.40;0.30;;;17.00;96.80;;;;;;5093439;28;20379;-75
2021/10/16 11:29:31;;;;;;;0.40;0.30;;;17.10;94.40;;;;;;5092418;28;20396;-74
2021/10/16 11:32:21;;;;;;;0.40;0.20;;;16.90;96.00;;;;;;5093000;28;20389;-75
2021/10/16 11:34:58;;;;;;;0.40;0.30;;;16.70;96.20;;;;;;5093279;28;20378;-74
2021/10/16 11:37:37;;;;;;;0.40;0.20;;;17.10;96.20;;;;;;5091841;28;20406;-74
2021/10/16 11:40:07;;;;;;;0.40;0.20;;;16.50;96.20;;;;;;5093150;28;20857;-74
2021/10/16 11:42:33;;;;;;;0.40;0.30;;;16.40;96.50;;;;;;5092136;28;20408;-74
2021/10/16 11:44:59;;;;;;;0.40;0.30;;;16.70;95.80;;;;;;5093057;28;20379;-74
2021/10/16 11:47:25;;;;;;;0.40;0.30;;;17.00;96.20;;;;;;5092033;28;20370;-75
2021/10/16 11:49:50;;;;;;;0.40;0.30;;;15.30;99.40;;;;;;5092953;28;20374;-74
2021/10/16 11:52:24;;;;;;;1.05;0.68;;;16.00;98.00;;;;;;5078124;28;20449;-73
2021/10/16 11:55:16;;;;;;;0.40;0.30;;;17.10;97.30;;;;;;5079727;28;20422;-72
2021/10/16 11:57:42;;;;;;;0.40;0.30;;;16.90;97.20;;;;;;5078774;28;20418;-73
2021/10/16 12:00:23;;;;;;;0.40;0.20;;;15.80;96.70;;;;;;5078158;28;20382;-73
2021/10/16 12:02:49;;;;;;;0.40;0.20;;;16.70;96.20;;;;;;5076327;28;20991;-73
2021/10/16 12:05:17;;;;;;;0.40;0.20;;;16.70;98.70;;;;;;5078018;28;20506;-73
2021/10/16 12:07:45;;;;;;;0.40;0.30;;;16.60;96.00;;;;;;5077739;28;20409;-73
2021/10/16 12:10:18;;;;;;;0.40;0.30;;;16.00;96.80;;;;;;5078528;28;20393;-73
2021/10/16 12:13:08;;;;;;;0.40;0.30;;;17.30;96.20;;;;;;5075513;28;20390;-73
2021/10/16 12:15:42;;;;;;;0.40;0.20;;;15.20;97.80;;;;;;5077690;28;20414;-73
2021/10/16 12:18:21;;;;;;;0.40;0.30;;;15.80;99.20;;;;;;5093932;28;21079;-73
2021/10/16 12:20:52;;;;;;;0.40;0.30;;;15.80;99.90;;;;;;5075769;28;20405;-73
2021/10/16 12:23:19;;;;;;;0.40;0.30;;;15.40;99.90;;;;;;5076878;28;20402;-73
2021/10/16 12:25:47;;;;;;;0.47;0.40;;;15.80;99.90;;;;;;5078036;28;20386;-72
2021/10/16 12:28:13;;;;;;;0.40;0.30;;;15.30;98.60;;;;;;5077101;28;20390;-72
2021/10/16 12:30:57;;;;;;;0.40;0.30;;;15.40;99.90;;;;;;5075366;28;20390;-73
2021/10/16 12:33:23;;;;;;;0.40;0.30;;;15.30;99.90;;;;;;5077274;28;20390;-74
2021/10/16 12:35:57;;;;;;;0.40;0.30;;;15.40;99.90;;;;;;5077971;28;20451;-73
2021/10/16 12:38:23;;;;;;;0.40;0.20;;;15.40;99.90;;;;;;5077079;28;20499;-73
2021/10/16 12:40:48;;;;;;;0.40;0.30;;;15.20;99.90;;;;;;5076195;28;20386;-72
2021/10/16 12:43:27;;;;;;;0.55;0.52;;;14.90;99.90;;;;;;5077876;28;20874;-73
2021/10/16 12:45:53;;;;;;;0.40;0.40;;;15.20;99.90;;;;;;5077785;28;20397;-74
2021/10/16 12:48:34;;;;;;;0.40;0.30;;;15.70;99.90;;;;;;5077602;28;20390;-73
2021/10/16 12:51:02;;;;;;;0.50;0.40;;;15.60;99.90;;;;;;5075249;28;20398;-73
2021/10/16 12:53:52;;;;;;;0.40;0.20;;;15.50;99.90;;;;;;5076768;28;21194;-73
2021/10/16 12:56:24;;;;;;;0.40;0.30;;;14.70;99.90;;;;;;5068409;28;20414;-72
2021/10/16 12:58:51;;;;;;;0.40;0.30;;;14.70;99.90;;;;;;5077572;28;20386;-73